sensor_id;sensor_type;location;lat;lon;timestamp;P1;durP1;ratioP1;P2;durP2;ratioP2
45232;SDS011;30969;51.052;17.056;2023-03-23T00:03:36;20.92;;;13.00;;
45232;SDS011;30969;51.052;17.056;2023-03-23T00:13:47;23.70;;;13.52;;
45232;SDS011;30969;51.052;17.056;2023-03-23T00:18:52;22.40;;;14.20;;
45232;SDS011;30969;51.052;17.056;2023-03-23T00:23:55;27.35;;;15.80;;
45232;SDS011;30969;51.052;17.056;2023-03-23T00:29:01;24.98;;;14.48;;
45232;SDS011;30969;51.052;17.056;2023-03-23T00:34:04;24.40;;;14.93;;
45232;SDS011;30969;51.052;17.056;2023-03-23T00:39:08;26.02;;;15.55;;
45232;SDS011;30969;51.052;17.056;2023-03-23T00:44:11;25.63;;;14.20;;
45232;SDS011;30969;51.052;17.056;2023-03-23T00:49:17;22.60;;;13.63;;
45232;SDS011;30969;51.052;17.056;2023-03-23T00:54:26;21.10;;;13.27;;
45232;SDS011;30969;51.052;17.056;2023-03-23T00:59:29;21.88;;;12.32;;
45232;SDS011;30969;51.052;17.056;2023-03-23T01:04:32;22.17;;;12.40;;
45232;SDS011;30969;51.052;17.056;2023-03-23T01:09:39;22.00;;;13.73;;
45232;SDS011;30969;51.052;17.056;2023-03-23T01:14:45;19.30;;;10.90;;
45232;SDS011;30969;51.052;17.056;2023-03-23T01:19:48;16.92;;;10.63;;
45232;SDS011;30969;51.052;17.056;2023-03-23T01:24:52;17.77;;;10.82;;
45232;SDS011;30969;51.052;17.056;2023-03-23T01:29:54;17.25;;;10.55;;
45232;SDS011;30969;51.052;17.056;2023-03-23T01:40:01;14.32;;;9.63;;
45232;SDS011;30969;51.052;17.056;2023-03-23T01:50:37;17.65;;;11.43;;
45232;SDS011;30969;51.052;17.056;2023-03-23T01:55:46;14.18;;;9.82;;
45232;SDS011;30969;51.052;17.056;2023-03-23T02:00:51;18.15;;;10.10;;
45232;SDS011;30969;51.052;17.056;2023-03-23T02:05:55;16.08;;;9.07;;
45232;SDS011;30969;51.052;17.056;2023-03-23T02:11:00;16.45;;;9.38;;
45232;SDS011;30969;51.052;17.056;2023-03-23T02:16:06;13.63;;;8.73;;
45232;SDS011;30969;51.052;17.056;2023-03-23T02:21:25;14.82;;;8.23;;
45232;SDS011;30969;51.052;17.056;2023-03-23T02:26:52;12.88;;;7.72;;
45232;SDS011;30969;51.052;17.056;2023-03-23T02:32:08;12.90;;;8.60;;
45232;SDS011;30969;51.052;17.056;2023-03-23T02:37:20;11.30;;;7.63;;
45232;SDS011;30969;51.052;17.056;2023-03-23T02:42:26;18.73;;;8.77;;
45232;SDS011;30969;51.052;17.056;2023-03-23T02:47:32;12.43;;;7.93;;
45232;SDS011;30969;51.052;17.056;2023-03-23T02:52:39;15.13;;;7.93;;
45232;SDS011;30969;51.052;17.056;2023-03-23T02:57:43;11.77;;;6.90;;
45232;SDS011;30969;51.052;17.056;2023-03-23T03:02:47;12.40;;;7.38;;
45232;SDS011;30969;51.052;17.056;2023-03-23T03:08:02;10.88;;;6.75;;
45232;SDS011;30969;51.052;17.056;2023-03-23T03:13:21;15.20;;;7.80;;
45232;SDS011;30969;51.052;17.056;2023-03-23T03:18:30;11.23;;;7.05;;
45232;SDS011;30969;51.052;17.056;2023-03-23T03:23:40;11.60;;;7.55;;
45232;SDS011;30969;51.052;17.056;2023-03-23T03:28:44;11.30;;;7.05;;
45232;SDS011;30969;51.052;17.056;2023-03-23T03:33:49;9.95;;;6.15;;
45232;SDS011;30969;51.052;17.056;2023-03-23T03:38:54;11.75;;;7.00;;
45232;SDS011;30969;51.052;17.056;2023-03-23T03:43:58;10.68;;;6.63;;
45232;SDS011;30969;51.052;17.056;2023-03-23T03:49:01;10.13;;;6.80;;
45232;SDS011;30969;51.052;17.056;2023-03-23T03:54:06;10.57;;;6.18;;
45232;SDS011;30969;51.052;17.056;2023-03-23T03:59:08;8.45;;;5.65;;
45232;SDS011;30969;51.052;17.056;2023-03-23T04:04:13;10.63;;;6.25;;
45232;SDS011;30969;51.052;17.056;2023-03-23T04:09:16;8.85;;;5.10;;
45232;SDS011;30969;51.052;17.056;2023-03-23T04:14:20;9.80;;;6.00;;
45232;SDS011;30969;51.052;17.056;2023-03-23T04:19:22;10.48;;;5.25;;
45232;SDS011;30969;51.052;17.056;2023-03-23T04:24:26;8.88;;;5.80;;
45232;SDS011;30969;51.052;17.056;2023-03-23T04:29:32;8.70;;;5.22;;
45232;SDS011;30969;51.052;17.056;2023-03-23T04:34:35;8.35;;;6.13;;
45232;SDS011;30969;51.052;17.056;2023-03-23T04:44:42;8.05;;;5.38;;
45232;SDS011;30969;51.052;17.056;2023-03-23T04:49:44;9.07;;;5.35;;
45232;SDS011;30969;51.052;17.056;2023-03-23T04:54:48;9.70;;;5.20;;
45232;SDS011;30969;51.052;17.056;2023-03-23T04:59:50;6.80;;;4.90;;
45232;SDS011;30969;51.052;17.056;2023-03-23T05:04:53;7.18;;;4.63;;
45232;SDS011;30969;51.052;17.056;2023-03-23T05:09:56;6.90;;;4.75;;
45232;SDS011;30969;51.052;17.056;2023-03-23T05:14:59;9.68;;;4.75;;
45232;SDS011;30969;51.052;17.056;2023-03-23T05:20:03;8.90;;;4.90;;
45232;SDS011;30969;51.052;17.056;2023-03-23T05:25:10;7.47;;;4.57;;
45232;SDS011;30969;51.052;17.056;2023-03-23T05:30:12;6.35;;;4.47;;
45232;SDS011;30969;51.052;17.056;2023-03-23T05:35:17;7.13;;;4.50;;
45232;SDS011;30969;51.052;17.056;2023-03-23T05:40:22;8.57;;;4.10;;
45232;SDS011;30969;51.052;17.056;2023-03-23T05:45:26;6.72;;;4.15;;
45232;SDS011;30969;51.052;17.056;2023-03-23T05:50:28;5.65;;;3.83;;
45232;SDS011;30969;51.052;17.056;2023-03-23T05:55:32;5.90;;;3.83;;
45232;SDS011;30969;51.052;17.056;2023-03-23T06:00:35;8.30;;;4.00;;
45232;SDS011;30969;51.052;17.056;2023-03-23T06:10:45;6.18;;;3.72;;
45232;SDS011;30969;51.052;17.056;2023-03-23T06:15:48;6.60;;;4.35;;
45232;SDS011;30969;51.052;17.056;2023-03-23T06:20:51;6.78;;;3.78;;
45232;SDS011;30969;51.052;17.056;2023-03-23T06:25:57;9.25;;;3.67;;
45232;SDS011;30969;51.052;17.056;2023-03-23T06:31:01;6.13;;;3.53;;
45232;SDS011;30969;51.052;17.056;2023-03-23T06:36:07;6.00;;;3.45;;
45232;SDS011;30969;51.052;17.056;2023-03-23T06:41:13;4.38;;;2.97;;
45232;SDS011;30969;51.052;17.056;2023-03-23T06:46:16;6.57;;;4.00;;
45232;SDS011;30969;51.052;17.056;2023-03-23T06:51:18;6.22;;;3.72;;
45232;SDS011;30969;51.052;17.056;2023-03-23T06:56:22;5.97;;;3.33;;
45232;SDS011;30969;51.052;17.056;2023-03-23T07:01:25;6.95;;;3.45;;
45232;SDS011;30969;51.052;17.056;2023-03-23T07:06:28;8.98;;;4.40;;
45232;SDS011;30969;51.052;17.056;2023-03-23T07:11:32;4.85;;;3.55;;
45232;SDS011;30969;51.052;17.056;2023-03-23T07:16:34;5.80;;;4.10;;
45232;SDS011;30969;51.052;17.056;2023-03-23T07:21:37;5.88;;;3.47;;
45232;SDS011;30969;51.052;17.056;2023-03-23T07:26:41;8.45;;;3.83;;
45232;SDS011;30969;51.052;17.056;2023-03-23T07:31:43;6.60;;;4.13;;
45232;SDS011;30969;51.052;17.056;2023-03-23T07:36:46;7.70;;;4.00;;
45232;SDS011;30969;51.052;17.056;2023-03-23T07:41:50;7.28;;;4.05;;
45232;SDS011;30969;51.052;17.056;2023-03-23T07:46:52;6.00;;;4.35;;
45232;SDS011;30969;51.052;17.056;2023-03-23T07:51:55;6.10;;;4.25;;
45232;SDS011;30969;51.052;17.056;2023-03-23T07:56:59;6.15;;;4.20;;
45232;SDS011;30969;51.052;17.056;2023-03-23T08:02:02;10.88;;;5.15;;
45232;SDS011;30969;51.052;17.056;2023-03-23T08:07:04;8.05;;;4.20;;
45232;SDS011;30969;51.052;17.056;2023-03-23T08:12:08;7.63;;;4.40;;
45232;SDS011;30969;51.052;17.056;2023-03-23T08:17:10;6.18;;;4.60;;
45232;SDS011;30969;51.052;17.056;2023-03-23T08:22:13;9.43;;;4.25;;
45232;SDS011;30969;51.052;17.056;2023-03-23T08:37:21;6.35;;;4.57;;
45232;SDS011;30969;51.052;17.056;2023-03-23T08:42:25;7.90;;;4.25;;
45232;SDS011;30969;51.052;17.056;2023-03-23T08:47:27;7.68;;;3.63;;
45232;SDS011;30969;51.052;17.056;2023-03-23T08:52:30;5.07;;;3.08;;
45232;SDS011;30969;51.052;17.056;2023-03-23T09:02:36;5.57;;;3.38;;
45232;SDS011;30969;51.052;17.056;2023-03-23T09:12:44;5.40;;;2.50;;
45232;SDS011;30969;51.052;17.056;2023-03-23T09:17:48;4.93;;;2.17;;
45232;SDS011;30969;51.052;17.056;2023-03-23T09:22:53;3.50;;;1.92;;
45232;SDS011;30969;51.052;17.056;2023-03-23T09:27:58;3.58;;;2.15;;
45232;SDS011;30969;51.052;17.056;2023-03-23T09:33:01;5.95;;;2.67;;
45232;SDS011;30969;51.052;17.056;2023-03-23T09:38:05;5.70;;;2.90;;
45232;SDS011;30969;51.052;17.056;2023-03-23T09:43:17;4.82;;;2.15;;
45232;SDS011;30969;51.052;17.056;2023-03-23T09:48:41;6.28;;;2.42;;
45232;SDS011;30969;51.052;17.056;2023-03-23T09:53:49;4.97;;;2.00;;
45232;SDS011;30969;51.052;17.056;2023-03-23T09:58:57;4.57;;;2.10;;
45232;SDS011;30969;51.052;17.056;2023-03-23T10:04:03;4.95;;;2.20;;
45232;SDS011;30969;51.052;17.056;2023-03-23T10:09:13;3.38;;;2.20;;
45232;SDS011;30969;51.052;17.056;2023-03-23T10:14:22;4.22;;;2.50;;
45232;SDS011;30969;51.052;17.056;2023-03-23T10:19:34;4.75;;;2.42;;
45232;SDS011;30969;51.052;17.056;2023-03-23T10:24:43;3.30;;;1.85;;
45232;SDS011;30969;51.052;17.056;2023-03-23T10:29:52;6.22;;;2.10;;
45232;SDS011;30969;51.052;17.056;2023-03-23T10:34:59;3.33;;;2.00;;
45232;SDS011;30969;51.052;17.056;2023-03-23T10:40:06;2.95;;;1.50;;
45232;SDS011;30969;51.052;17.056;2023-03-23T10:45:17;4.15;;;1.92;;
45232;SDS011;30969;51.052;17.056;2023-03-23T10:50:24;3.53;;;1.38;;
45232;SDS011;30969;51.052;17.056;2023-03-23T10:55:36;3.63;;;1.40;;
45232;SDS011;30969;51.052;17.056;2023-03-23T11:00:42;2.47;;;1.10;;
45232;SDS011;30969;51.052;17.056;2023-03-23T11:05:48;2.15;;;1.42;;
45232;SDS011;30969;51.052;17.056;2023-03-23T11:10:53;2.97;;;1.30;;
45232;SDS011;30969;51.052;17.056;2023-03-23T11:15:58;3.92;;;1.48;;
45232;SDS011;30969;51.052;17.056;2023-03-23T11:21:01;1.88;;;1.15;;
45232;SDS011;30969;51.052;17.056;2023-03-23T11:26:08;6.95;;;1.20;;
45232;SDS011;30969;51.052;17.056;2023-03-23T11:31:16;2.30;;;1.15;;
45232;SDS011;30969;51.052;17.056;2023-03-23T11:36:28;3.45;;;1.35;;
45232;SDS011;30969;51.052;17.056;2023-03-23T11:41:34;4.30;;;1.52;;
45232;SDS011;30969;51.052;17.056;2023-03-23T11:46:43;1.85;;;0.90;;
45232;SDS011;30969;51.052;17.056;2023-03-23T11:51:56;2.38;;;1.10;;
45232;SDS011;30969;51.052;17.056;2023-03-23T11:57:07;2.67;;;1.27;;
45232;SDS011;30969;51.052;17.056;2023-03-23T12:02:24;3.92;;;1.13;;
45232;SDS011;30969;51.052;17.056;2023-03-23T12:07:41;2.70;;;1.20;;
45232;SDS011;30969;51.052;17.056;2023-03-23T12:12:51;2.78;;;1.50;;
45232;SDS011;30969;51.052;17.056;2023-03-23T12:18:09;1.77;;;1.20;;
45232;SDS011;30969;51.052;17.056;2023-03-23T12:23:21;1.65;;;1.20;;
45232;SDS011;30969;51.052;17.056;2023-03-23T12:28:31;2.70;;;1.33;;
45232;SDS011;30969;51.052;17.056;2023-03-23T12:33:48;5.28;;;1.30;;
45232;SDS011;30969;51.052;17.056;2023-03-23T12:39:01;2.40;;;1.27;;
45232;SDS011;30969;51.052;17.056;2023-03-23T12:44:16;2.33;;;1.20;;
45232;SDS011;30969;51.052;17.056;2023-03-23T12:49:27;3.25;;;1.38;;
45232;SDS011;30969;51.052;17.056;2023-03-23T12:54:36;6.22;;;1.70;;
45232;SDS011;30969;51.052;17.056;2023-03-23T12:59:44;6.05;;;1.95;;
45232;SDS011;30969;51.052;17.056;2023-03-23T13:05:02;3.92;;;1.77;;
45232;SDS011;30969;51.052;17.056;2023-03-23T13:10:12;4.95;;;1.73;;
45232;SDS011;30969;51.052;17.056;2023-03-23T13:20:34;3.53;;;1.60;;
45232;SDS011;30969;51.052;17.056;2023-03-23T13:25:53;2.50;;;1.65;;
45232;SDS011;30969;51.052;17.056;2023-03-23T13:30:59;3.08;;;1.58;;
45232;SDS011;30969;51.052;17.056;2023-03-23T13:36:08;2.97;;;1.77;;
45232;SDS011;30969;51.052;17.056;2023-03-23T13:41:12;3.83;;;2.17;;
45232;SDS011;30969;51.052;17.056;2023-03-23T13:46:26;2.90;;;1.85;;
45232;SDS011;30969;51.052;17.056;2023-03-23T13:51:36;4.82;;;2.30;;
45232;SDS011;30969;51.052;17.056;2023-03-23T13:56:52;6.55;;;2.30;;
45232;SDS011;30969;51.052;17.056;2023-03-23T14:07:38;3.85;;;2.15;;
45232;SDS011;30969;51.052;17.056;2023-03-23T14:13:04;4.47;;;1.98;;
45232;SDS011;30969;51.052;17.056;2023-03-23T14:18:13;2.90;;;1.75;;
45232;SDS011;30969;51.052;17.056;2023-03-23T14:23:19;5.85;;;2.00;;
45232;SDS011;30969;51.052;17.056;2023-03-23T14:28:21;4.43;;;2.80;;
45232;SDS011;30969;51.052;17.056;2023-03-23T14:33:24;3.83;;;2.38;;
45232;SDS011;30969;51.052;17.056;2023-03-23T14:38:29;3.38;;;2.15;;
45232;SDS011;30969;51.052;17.056;2023-03-23T14:43:33;6.90;;;2.65;;
45232;SDS011;30969;51.052;17.056;2023-03-23T14:48:37;4.25;;;2.17;;
45232;SDS011;30969;51.052;17.056;2023-03-23T14:53:43;4.80;;;2.88;;
45232;SDS011;30969;51.052;17.056;2023-03-23T14:58:46;5.15;;;2.78;;
45232;SDS011;30969;51.052;17.056;2023-03-23T15:03:51;3.92;;;2.30;;
45232;SDS011;30969;51.052;17.056;2023-03-23T15:08:57;4.53;;;2.28;;
45232;SDS011;30969;51.052;17.056;2023-03-23T15:14:07;4.53;;;2.17;;
45232;SDS011;30969;51.052;17.056;2023-03-23T15:19:13;10.40;;;3.17;;
45232;SDS011;30969;51.052;17.056;2023-03-23T15:24:24;4.45;;;2.28;;
45232;SDS011;30969;51.052;17.056;2023-03-23T15:29:30;5.90;;;2.35;;
45232;SDS011;30969;51.052;17.056;2023-03-23T15:34:33;6.45;;;2.75;;
45232;SDS011;30969;51.052;17.056;2023-03-23T15:39:41;3.75;;;2.08;;
45232;SDS011;30969;51.052;17.056;2023-03-23T15:44:43;6.38;;;3.83;;
45232;SDS011;30969;51.052;17.056;2023-03-23T15:50:02;5.30;;;2.35;;
45232;SDS011;30969;51.052;17.056;2023-03-23T15:55:19;3.22;;;2.00;;
45232;SDS011;30969;51.052;17.056;2023-03-23T16:00:24;4.03;;;2.20;;
45232;SDS011;30969;51.052;17.056;2023-03-23T16:05:28;5.43;;;3.00;;
45232;SDS011;30969;51.052;17.056;2023-03-23T16:10:34;4.35;;;2.17;;
45232;SDS011;30969;51.052;17.056;2023-03-23T16:15:39;3.60;;;2.22;;
45232;SDS011;30969;51.052;17.056;2023-03-23T16:20:43;6.28;;;2.30;;
45232;SDS011;30969;51.052;17.056;2023-03-23T16:25:48;5.47;;;2.10;;
45232;SDS011;30969;51.052;17.056;2023-03-23T16:30:52;4.63;;;2.40;;
45232;SDS011;30969;51.052;17.056;2023-03-23T16:35:56;8.52;;;2.53;;
45232;SDS011;30969;51.052;17.056;2023-03-23T16:41:01;6.20;;;3.65;;
45232;SDS011;30969;51.052;17.056;2023-03-23T16:46:04;6.75;;;3.22;;
45232;SDS011;30969;51.052;17.056;2023-03-23T16:51:08;8.43;;;3.10;;
45232;SDS011;30969;51.052;17.056;2023-03-23T16:56:13;7.05;;;3.08;;
45232;SDS011;30969;51.052;17.056;2023-03-23T17:01:16;5.32;;;2.67;;
45232;SDS011;30969;51.052;17.056;2023-03-23T17:06:20;4.93;;;2.75;;
45232;SDS011;30969;51.052;17.056;2023-03-23T17:11:25;7.55;;;3.13;;
45232;SDS011;30969;51.052;17.056;2023-03-23T17:16:28;6.15;;;3.08;;
45232;SDS011;30969;51.052;17.056;2023-03-23T17:21:32;7.18;;;2.95;;
45232;SDS011;30969;51.052;17.056;2023-03-23T17:26:38;3.95;;;2.50;;
45232;SDS011;30969;51.052;17.056;2023-03-23T17:31:41;4.15;;;2.50;;
45232;SDS011;30969;51.052;17.056;2023-03-23T17:36:45;5.28;;;2.67;;
45232;SDS011;30969;51.052;17.056;2023-03-23T17:41:50;6.40;;;3.63;;
45232;SDS011;30969;51.052;17.056;2023-03-23T17:46:53;9.88;;;4.68;;
45232;SDS011;30969;51.052;17.056;2023-03-23T17:51:58;8.68;;;4.47;;
45232;SDS011;30969;51.052;17.056;2023-03-23T17:57:03;7.70;;;3.95;;
45232;SDS011;30969;51.052;17.056;2023-03-23T18:02:07;8.10;;;3.03;;
45232;SDS011;30969;51.052;17.056;2023-03-23T18:07:14;6.05;;;4.32;;
45232;SDS011;30969;51.052;17.056;2023-03-23T18:12:21;8.45;;;3.88;;
45232;SDS011;30969;51.052;17.056;2023-03-23T18:17:24;7.68;;;3.85;;
45232;SDS011;30969;51.052;17.056;2023-03-23T18:22:29;9.35;;;3.90;;
45232;SDS011;30969;51.052;17.056;2023-03-23T18:27:34;7.68;;;4.05;;
45232;SDS011;30969;51.052;17.056;2023-03-23T18:32:38;15.55;;;4.97;;
45232;SDS011;30969;51.052;17.056;2023-03-23T18:37:43;10.18;;;4.60;;
45232;SDS011;30969;51.052;17.056;2023-03-23T18:42:49;16.08;;;4.93;;
45232;SDS011;30969;51.052;17.056;2023-03-23T18:47:53;8.52;;;5.00;;
45232;SDS011;30969;51.052;17.056;2023-03-23T18:52:56;7.28;;;4.15;;
45232;SDS011;30969;51.052;17.056;2023-03-23T18:58:02;9.57;;;5.15;;
45232;SDS011;30969;51.052;17.056;2023-03-23T19:03:06;9.93;;;4.90;;
45232;SDS011;30969;51.052;17.056;2023-03-23T19:08:10;7.90;;;4.75;;
45232;SDS011;30969;51.052;17.056;2023-03-23T19:13:16;8.07;;;4.70;;
45232;SDS011;30969;51.052;17.056;2023-03-23T19:18:20;10.52;;;5.22;;
45232;SDS011;30969;51.052;17.056;2023-03-23T19:23:24;9.23;;;4.78;;
45232;SDS011;30969;51.052;17.056;2023-03-23T19:28:33;9.02;;;4.65;;
45232;SDS011;30969;51.052;17.056;2023-03-23T19:33:41;8.70;;;5.10;;
45232;SDS011;30969;51.052;17.056;2023-03-23T19:38:48;10.02;;;5.38;;
45232;SDS011;30969;51.052;17.056;2023-03-23T19:43:54;12.10;;;6.50;;
45232;SDS011;30969;51.052;17.056;2023-03-23T19:48:58;17.75;;;7.20;;
45232;SDS011;30969;51.052;17.056;2023-03-23T19:54:03;9.70;;;6.57;;
45232;SDS011;30969;51.052;17.056;2023-03-23T19:59:13;12.20;;;6.90;;
45232;SDS011;30969;51.052;17.056;2023-03-23T20:04:18;11.45;;;6.32;;
45232;SDS011;30969;51.052;17.056;2023-03-23T20:09:26;10.95;;;5.53;;
45232;SDS011;30969;51.052;17.056;2023-03-23T20:14:33;10.38;;;5.15;;
45232;SDS011;30969;51.052;17.056;2023-03-23T20:19:38;8.82;;;5.03;;
45232;SDS011;30969;51.052;17.056;2023-03-23T20:24:43;10.50;;;5.15;;
45232;SDS011;30969;51.052;17.056;2023-03-23T20:29:49;8.73;;;4.85;;
45232;SDS011;30969;51.052;17.056;2023-03-23T20:34:54;9.18;;;4.85;;
45232;SDS011;30969;51.052;17.056;2023-03-23T20:39:58;7.20;;;4.40;;
45232;SDS011;30969;51.052;17.056;2023-03-23T20:45:03;7.78;;;5.13;;
45232;SDS011;30969;51.052;17.056;2023-03-23T20:50:09;8.27;;;4.82;;
45232;SDS011;30969;51.052;17.056;2023-03-23T20:55:14;8.50;;;5.30;;
45232;SDS011;30969;51.052;17.056;2023-03-23T21:00:20;12.52;;;4.70;;
45232;SDS011;30969;51.052;17.056;2023-03-23T21:05:26;8.52;;;5.05;;
45232;SDS011;30969;51.052;17.056;2023-03-23T21:10:31;10.75;;;4.63;;
45232;SDS011;30969;51.052;17.056;2023-03-23T21:15:36;8.95;;;4.90;;
45232;SDS011;30969;51.052;17.056;2023-03-23T21:20:41;7.82;;;5.13;;
45232;SDS011;30969;51.052;17.056;2023-03-23T21:25:45;7.88;;;4.72;;
45232;SDS011;30969;51.052;17.056;2023-03-23T21:30:51;11.05;;;5.10;;
45232;SDS011;30969;51.052;17.056;2023-03-23T21:35:55;9.88;;;4.95;;
45232;SDS011;30969;51.052;17.056;2023-03-23T21:41:04;9.70;;;4.85;;
45232;SDS011;30969;51.052;17.056;2023-03-23T21:46:11;9.43;;;5.28;;
45232;SDS011;30969;51.052;17.056;2023-03-23T21:51:20;7.20;;;4.78;;
45232;SDS011;30969;51.052;17.056;2023-03-23T21:56:25;8.75;;;4.70;;
45232;SDS011;30969;51.052;17.056;2023-03-23T22:01:30;10.10;;;4.35;;
45232;SDS011;30969;51.052;17.056;2023-03-23T22:06:38;7.57;;;4.13;;
45232;SDS011;30969;51.052;17.056;2023-03-23T22:11:43;6.50;;;4.53;;
45232;SDS011;30969;51.052;17.056;2023-03-23T22:16:48;5.70;;;3.60;;
45232;SDS011;30969;51.052;17.056;2023-03-23T22:21:52;7.63;;;3.70;;
45232;SDS011;30969;51.052;17.056;2023-03-23T22:26:56;7.47;;;4.50;;
45232;SDS011;30969;51.052;17.056;2023-03-23T22:32:00;6.68;;;3.95;;
45232;SDS011;30969;51.052;17.056;2023-03-23T22:37:04;7.03;;;3.92;;
45232;SDS011;30969;51.052;17.056;2023-03-23T22:42:09;7.68;;;3.90;;
45232;SDS011;30969;51.052;17.056;2023-03-23T22:47:15;6.93;;;4.45;;
45232;SDS011;30969;51.052;17.056;2023-03-23T22:52:18;7.70;;;4.10;;
45232;SDS011;30969;51.052;17.056;2023-03-23T22:57:22;6.97;;;3.80;;
45232;SDS011;30969;51.052;17.056;2023-03-23T23:02:27;8.20;;;4.65;;
45232;SDS011;30969;51.052;17.056;2023-03-23T23:07:30;10.43;;;5.53;;
45232;SDS011;30969;51.052;17.056;2023-03-23T23:12:34;10.13;;;5.82;;
45232;SDS011;30969;51.052;17.056;2023-03-23T23:17:39;8.25;;;5.25;;
45232;SDS011;30969;51.052;17.056;2023-03-23T23:22:44;9.95;;;4.75;;
45232;SDS011;30969;51.052;17.056;2023-03-23T23:27:47;8.68;;;4.32;;
45232;SDS011;30969;51.052;17.056;2023-03-23T23:32:53;5.65;;;3.40;;
45232;SDS011;30969;51.052;17.056;2023-03-23T23:37:57;7.82;;;4.40;;
45232;SDS011;30969;51.052;17.056;2023-03-23T23:43:01;7.18;;;4.75;;
45232;SDS011;30969;51.052;17.056;2023-03-23T23:48:06;6.15;;;4.10;;
45232;SDS011;30969;51.052;17.056;2023-03-23T23:53:10;7.28;;;4.18;;
45232;SDS011;30969;51.052;17.056;2023-03-23T23:58:13;4.82;;;3.38;;
